SBJP/JPA METAR and TAF weather

Enter ICAO airport designator
Station Type Date Time Source
SBJP METAR 2020/09/20 01:00 UTC NOAA

SBJP 200100Z 10005KT 9999 SCT020 24/22 Q1016


Station Type Date Time Source
SBJP Decoded METAR 2020/09/20 01:00 UTC NOAA

Joao Pessoa, Brazil (SBJP) 07-06S 034-52W
Sep 19, 2020 - 09:00 PM EDT / 2020.09.20 0100 UTC
Wind: from the E (100 degrees) at 6 MPH (5 KT):0
Visibility: greater than 7 mile(s):0
Sky conditions: partly cloudy
Temperature: 75 F (24 C)
Dew Point: 71 F (22 C)
Relative Humidity: 88%
Pressure (altimeter): 30.00 in. Hg (1016 hPa)
ob: SBJP 200100Z 10005KT 9999 SCT020 24/22 Q1016
cycle: 1

Station Type Date Time Source
SBJP TAF 2020/09/20 00:00 UTC NOAA

TAF SBJP 192100Z 2000/2024 11010KT 9999 SCT025 TN22/2008Z TX29/2015Z
RMK PHD

Example: see airport list